sensor_id;sensor_type;location;lat;lon;timestamp;pressure;altitude;pressure_sealevel;temperature;humidity
77450;BME280;66536;53.150;18.172;2023-08-31T00:01:01;100385.92;;;14.28;95.69
77450;BME280;66536;53.150;18.172;2023-08-31T00:03:31;100386.66;;;14.28;95.82
77450;BME280;66536;53.150;18.172;2023-08-31T00:05:57;100391.39;;;14.27;95.86
77450;BME280;66536;53.150;18.172;2023-08-31T00:08:23;100390.35;;;14.26;95.78
77450;BME280;66536;53.150;18.172;2023-08-31T00:10:57;100388.75;;;14.24;95.88
77450;BME280;66536;53.150;18.172;2023-08-31T00:13:24;100387.73;;;14.23;96.15
77450;BME280;66536;53.150;18.172;2023-08-31T00:15:50;100387.54;;;14.23;96.09
77450;BME280;66536;53.150;18.172;2023-08-31T00:18:15;100389.14;;;14.23;95.89
77450;BME280;66536;53.150;18.172;2023-08-31T00:20:42;100387.61;;;14.22;95.98
77450;BME280;66536;53.150;18.172;2023-08-31T00:23:08;100392.86;;;14.21;95.83
77450;BME280;66536;53.150;18.172;2023-08-31T00:25:34;100394.14;;;14.19;96.05
77450;BME280;66536;53.150;18.172;2023-08-31T00:28:00;100395.58;;;14.18;96.02
77450;BME280;66536;53.150;18.172;2023-08-31T00:30:31;100403.18;;;14.19;96.21
77450;BME280;66536;53.150;18.172;2023-08-31T00:32:58;100405.63;;;14.19;96.13
77450;BME280;66536;53.150;18.172;2023-08-31T00:35:27;100406.21;;;14.19;96.21
77450;BME280;66536;53.150;18.172;2023-08-31T00:37:54;100405.02;;;14.19;96.10
77450;BME280;66536;53.150;18.172;2023-08-31T00:40:24;100404.54;;;14.19;96.32
77450;BME280;66536;53.150;18.172;2023-08-31T00:42:50;100400.95;;;14.19;96.30
77450;BME280;66536;53.150;18.172;2023-08-31T00:45:18;100401.89;;;14.17;96.32
77450;BME280;66536;53.150;18.172;2023-08-31T00:47:46;100399.64;;;14.15;96.38
77450;BME280;66536;53.150;18.172;2023-08-31T00:50:13;100402.80;;;14.14;96.24
77450;BME280;66536;53.150;18.172;2023-08-31T00:52:41;100400.34;;;14.13;96.34
77450;BME280;66536;53.150;18.172;2023-08-31T00:55:08;100399.33;;;14.12;96.23
77450;BME280;66536;53.150;18.172;2023-08-31T00:57:35;100396.11;;;14.09;96.19
77450;BME280;66536;53.150;18.172;2023-08-31T01:00:01;100396.74;;;14.06;96.24
77450;BME280;66536;53.150;18.172;2023-08-31T01:02:36;100397.38;;;14.04;96.50
77450;BME280;66536;53.150;18.172;2023-08-31T01:05:09;100399.89;;;14.02;96.46
77450;BME280;66536;53.150;18.172;2023-08-31T01:07:54;100400.59;;;14.00;96.57
77450;BME280;66536;53.150;18.172;2023-08-31T01:10:38;100391.68;;;14.00;96.61
77450;BME280;66536;53.150;18.172;2023-08-31T01:13:11;100387.73;;;14.00;96.71
77450;BME280;66536;53.150;18.172;2023-08-31T01:15:41;100390.15;;;13.98;96.66
77450;BME280;66536;53.150;18.172;2023-08-31T01:18:11;100392.30;;;13.97;96.94
77450;BME280;66536;53.150;18.172;2023-08-31T01:20:46;100394.33;;;13.96;96.90
77450;BME280;66536;53.150;18.172;2023-08-31T01:23:19;100395.14;;;13.95;96.95
77450;BME280;66536;53.150;18.172;2023-08-31T01:25:47;100390.95;;;13.93;97.03
77450;BME280;66536;53.150;18.172;2023-08-31T01:28:15;100395.12;;;13.93;97.10
77450;BME280;66536;53.150;18.172;2023-08-31T01:30:41;100396.20;;;13.93;97.18
77450;BME280;66536;53.150;18.172;2023-08-31T01:33:07;100397.27;;;13.94;97.15
77450;BME280;66536;53.150;18.172;2023-08-31T01:35:40;100396.69;;;13.94;97.22
77450;BME280;66536;53.150;18.172;2023-08-31T01:38:10;100397.79;;;13.95;97.20
77450;BME280;66536;53.150;18.172;2023-08-31T01:40:41;100398.45;;;13.97;97.19
77450;BME280;66536;53.150;18.172;2023-08-31T01:43:10;100400.23;;;13.97;97.10
77450;BME280;66536;53.150;18.172;2023-08-31T01:45:38;100401.23;;;13.98;97.16
77450;BME280;66536;53.150;18.172;2023-08-31T01:48:05;100398.69;;;13.98;97.21
77450;BME280;66536;53.150;18.172;2023-08-31T01:50:31;100394.08;;;13.99;97.20
77450;BME280;66536;53.150;18.172;2023-08-31T01:52:57;100385.73;;;13.99;97.10
77450;BME280;66536;53.150;18.172;2023-08-31T01:55:24;100385.67;;;13.98;97.11
77450;BME280;66536;53.150;18.172;2023-08-31T01:57:50;100381.48;;;13.96;97.13
77450;BME280;66536;53.150;18.172;2023-08-31T02:00:19;100377.08;;;13.95;97.17
77450;BME280;66536;53.150;18.172;2023-08-31T02:02:47;100376.98;;;13.95;97.21
77450;BME280;66536;53.150;18.172;2023-08-31T02:05:13;100384.72;;;13.94;97.15
77450;BME280;66536;53.150;18.172;2023-08-31T02:07:39;100390.18;;;13.94;97.27
77450;BME280;66536;53.150;18.172;2023-08-31T02:10:06;100395.90;;;13.94;97.33
77450;BME280;66536;53.150;18.172;2023-08-31T02:12:33;100391.20;;;13.93;97.18
77450;BME280;66536;53.150;18.172;2023-08-31T02:14:59;100392.80;;;13.92;97.28
77450;BME280;66536;53.150;18.172;2023-08-31T02:17:26;100391.19;;;13.92;97.33
77450;BME280;66536;53.150;18.172;2023-08-31T02:19:53;100386.64;;;13.91;97.22
77450;BME280;66536;53.150;18.172;2023-08-31T02:22:19;100386.33;;;13.90;97.33
77450;BME280;66536;53.150;18.172;2023-08-31T02:24:47;100389.31;;;13.89;97.27
77450;BME280;66536;53.150;18.172;2023-08-31T02:27:13;100391.52;;;13.87;97.12
77450;BME280;66536;53.150;18.172;2023-08-31T02:29:41;100396.38;;;13.85;97.17
77450;BME280;66536;53.150;18.172;2023-08-31T02:32:07;100395.27;;;13.84;97.21
77450;BME280;66536;53.150;18.172;2023-08-31T02:34:33;100397.52;;;13.82;97.37
77450;BME280;66536;53.150;18.172;2023-08-31T02:36:59;100392.44;;;13.80;97.23
77450;BME280;66536;53.150;18.172;2023-08-31T02:39:27;100392.67;;;13.79;97.28
77450;BME280;66536;53.150;18.172;2023-08-31T02:41:53;100397.17;;;13.78;97.37
77450;BME280;66536;53.150;18.172;2023-08-31T02:44:19;100398.52;;;13.77;97.31
77450;BME280;66536;53.150;18.172;2023-08-31T02:46:46;100402.89;;;13.77;97.38
77450;BME280;66536;53.150;18.172;2023-08-31T02:49:12;100405.07;;;13.76;97.39
77450;BME280;66536;53.150;18.172;2023-08-31T02:51:38;100405.78;;;13.76;97.31
77450;BME280;66536;53.150;18.172;2023-08-31T02:54:04;100403.69;;;13.75;97.30
77450;BME280;66536;53.150;18.172;2023-08-31T02:56:33;100397.85;;;13.75;97.38
77450;BME280;66536;53.150;18.172;2023-08-31T02:58:59;100400.84;;;13.73;97.27
77450;BME280;66536;53.150;18.172;2023-08-31T03:01:25;100404.47;;;13.72;97.33
77450;BME280;66536;53.150;18.172;2023-08-31T03:03:51;100405.23;;;13.72;97.53
77450;BME280;66536;53.150;18.172;2023-08-31T03:06:18;100406.33;;;13.71;97.52
77450;BME280;66536;53.150;18.172;2023-08-31T03:08:44;100400.02;;;13.71;97.50
77450;BME280;66536;53.150;18.172;2023-08-31T03:11:11;100399.75;;;13.70;97.48
77450;BME280;66536;53.150;18.172;2023-08-31T03:13:39;100403.32;;;13.70;97.55
77450;BME280;66536;53.150;18.172;2023-08-31T03:16:06;100401.70;;;13.69;97.42
77450;BME280;66536;53.150;18.172;2023-08-31T03:18:33;100405.28;;;13.68;97.42
77450;BME280;66536;53.150;18.172;2023-08-31T03:20:59;100403.83;;;13.67;97.37
77450;BME280;66536;53.150;18.172;2023-08-31T03:23:26;100409.90;;;13.68;97.41
77450;BME280;66536;53.150;18.172;2023-08-31T03:25:52;100408.90;;;13.67;97.31
77450;BME280;66536;53.150;18.172;2023-08-31T03:28:19;100414.71;;;13.66;97.18
77450;BME280;66536;53.150;18.172;2023-08-31T03:30:46;100413.54;;;13.65;97.05
77450;BME280;66536;53.150;18.172;2023-08-31T03:33:12;100418.61;;;13.64;97.15
77450;BME280;66536;53.150;18.172;2023-08-31T03:35:38;100420.95;;;13.63;97.14
77450;BME280;66536;53.150;18.172;2023-08-31T03:38:05;100427.60;;;13.63;97.29
77450;BME280;66536;53.150;18.172;2023-08-31T03:40:34;100428.80;;;13.63;97.30
77450;BME280;66536;53.150;18.172;2023-08-31T03:43:00;100426.45;;;13.62;97.16
77450;BME280;66536;53.150;18.172;2023-08-31T03:45:26;100424.80;;;13.61;97.22
77450;BME280;66536;53.150;18.172;2023-08-31T03:47:52;100425.98;;;13.61;97.22
77450;BME280;66536;53.150;18.172;2023-08-31T03:50:19;100426.20;;;13.61;97.17
77450;BME280;66536;53.150;18.172;2023-08-31T03:52:46;100426.86;;;13.62;97.21
77450;BME280;66536;53.150;18.172;2023-08-31T03:55:12;100427.80;;;13.63;97.24
77450;BME280;66536;53.150;18.172;2023-08-31T03:57:38;100433.04;;;13.65;97.27
77450;BME280;66536;53.150;18.172;2023-08-31T04:00:11;100431.79;;;13.67;97.23
77450;BME280;66536;53.150;18.172;2023-08-31T04:02:42;100429.20;;;13.68;97.10
77450;BME280;66536;53.150;18.172;2023-08-31T04:05:11;100428.13;;;13.70;97.20
77450;BME280;66536;53.150;18.172;2023-08-31T04:07:37;100429.59;;;13.71;97.01
77450;BME280;66536;53.150;18.172;2023-08-31T04:10:03;100429.23;;;13.72;97.01
77450;BME280;66536;53.150;18.172;2023-08-31T04:12:29;100423.98;;;13.73;96.91
77450;BME280;66536;53.150;18.172;2023-08-31T04:14:58;100421.19;;;13.73;96.95
77450;BME280;66536;53.150;18.172;2023-08-31T04:17:24;100418.91;;;13.74;97.11
77450;BME280;66536;53.150;18.172;2023-08-31T04:19:50;100421.76;;;13.76;97.08
77450;BME280;66536;53.150;18.172;2023-08-31T04:22:16;100423.77;;;13.77;97.14
77450;BME280;66536;53.150;18.172;2023-08-31T04:24:42;100421.46;;;13.80;97.09
77450;BME280;66536;53.150;18.172;2023-08-31T04:27:08;100422.80;;;13.83;97.08
77450;BME280;66536;53.150;18.172;2023-08-31T04:29:34;100422.95;;;13.85;97.03
77450;BME280;66536;53.150;18.172;2023-08-31T04:32:00;100421.82;;;13.88;97.00
77450;BME280;66536;53.150;18.172;2023-08-31T04:34:26;100421.70;;;13.91;96.96
77450;BME280;66536;53.150;18.172;2023-08-31T04:36:52;100423.51;;;13.93;96.87
77450;BME280;66536;53.150;18.172;2023-08-31T04:39:18;100419.33;;;13.95;96.64
77450;BME280;66536;53.150;18.172;2023-08-31T04:41:44;100425.23;;;13.98;96.72
77450;BME280;66536;53.150;18.172;2023-08-31T04:44:10;100428.98;;;14.02;96.61
77450;BME280;66536;53.150;18.172;2023-08-31T04:46:38;100431.19;;;14.06;96.62
77450;BME280;66536;53.150;18.172;2023-08-31T04:49:04;100431.59;;;14.09;96.52
77450;BME280;66536;53.150;18.172;2023-08-31T04:51:32;100432.75;;;14.12;96.48
77450;BME280;66536;53.150;18.172;2023-08-31T04:53:59;100435.99;;;14.16;96.28
77450;BME280;66536;53.150;18.172;2023-08-31T04:56:30;100439.39;;;14.20;96.22
77450;BME280;66536;53.150;18.172;2023-08-31T04:58:58;100442.69;;;14.23;96.09
77450;BME280;66536;53.150;18.172;2023-08-31T05:01:24;100450.12;;;14.28;95.95
77450;BME280;66536;53.150;18.172;2023-08-31T05:03:50;100451.10;;;14.33;95.90
77450;BME280;66536;53.150;18.172;2023-08-31T05:06:16;100448.77;;;14.38;95.81
77450;BME280;66536;53.150;18.172;2023-08-31T05:08:42;100447.75;;;14.42;95.66
77450;BME280;66536;53.150;18.172;2023-08-31T05:11:08;100446.52;;;14.47;95.48
77450;BME280;66536;53.150;18.172;2023-08-31T05:13:34;100444.31;;;14.52;95.35
77450;BME280;66536;53.150;18.172;2023-08-31T05:16:00;100442.95;;;14.58;95.30
77450;BME280;66536;53.150;18.172;2023-08-31T05:18:26;100445.79;;;14.67;94.99
77450;BME280;66536;53.150;18.172;2023-08-31T05:20:52;100454.11;;;14.77;94.76
77450;BME280;66536;53.150;18.172;2023-08-31T05:23:18;100455.87;;;14.86;94.65
77450;BME280;66536;53.150;18.172;2023-08-31T05:25:44;100456.20;;;14.92;94.38
77450;BME280;66536;53.150;18.172;2023-08-31T05:28:10;100451.06;;;14.97;94.01
77450;BME280;66536;53.150;18.172;2023-08-31T05:30:36;100453.17;;;15.02;93.83
77450;BME280;66536;53.150;18.172;2023-08-31T05:33:03;100450.02;;;15.09;93.76
77450;BME280;66536;53.150;18.172;2023-08-31T05:35:30;100450.73;;;15.19;93.61
77450;BME280;66536;53.150;18.172;2023-08-31T05:37:56;100446.74;;;15.30;93.59
77450;BME280;66536;53.150;18.172;2023-08-31T05:40:22;100445.13;;;15.42;93.37
77450;BME280;66536;53.150;18.172;2023-08-31T05:42:48;100445.95;;;15.55;93.28
77450;BME280;66536;53.150;18.172;2023-08-31T05:45:14;100443.06;;;15.70;92.96
77450;BME280;66536;53.150;18.172;2023-08-31T05:47:41;100444.16;;;15.84;93.07
77450;BME280;66536;53.150;18.172;2023-08-31T05:50:07;100445.34;;;15.97;92.95
77450;BME280;66536;53.150;18.172;2023-08-31T05:52:33;100449.66;;;16.09;92.66
77450;BME280;66536;53.150;18.172;2023-08-31T05:54:59;100446.90;;;16.21;92.32
77450;BME280;66536;53.150;18.172;2023-08-31T05:57:26;100452.64;;;16.31;92.17
77450;BME280;66536;53.150;18.172;2023-08-31T05:59:53;100455.39;;;16.42;91.87
77450;BME280;66536;53.150;18.172;2023-08-31T06:02:19;100452.63;;;16.54;91.45
77450;BME280;66536;53.150;18.172;2023-08-31T06:04:45;100452.39;;;16.64;91.46
77450;BME280;66536;53.150;18.172;2023-08-31T06:07:11;100456.71;;;16.75;91.19
77450;BME280;66536;53.150;18.172;2023-08-31T06:09:37;100462.89;;;16.85;90.87
77450;BME280;66536;53.150;18.172;2023-08-31T06:12:05;100455.15;;;16.94;90.35
77450;BME280;66536;53.150;18.172;2023-08-31T06:14:32;100460.48;;;17.02;90.13
77450;BME280;66536;53.150;18.172;2023-08-31T06:16:58;100462.97;;;17.10;89.58
77450;BME280;66536;53.150;18.172;2023-08-31T06:19:24;100463.48;;;17.16;89.32
77450;BME280;66536;53.150;18.172;2023-08-31T06:21:50;100465.08;;;17.22;89.15
77450;BME280;66536;53.150;18.172;2023-08-31T06:24:16;100462.44;;;17.29;89.08
77450;BME280;66536;53.150;18.172;2023-08-31T06:26:42;100461.54;;;17.37;88.74
77450;BME280;66536;53.150;18.172;2023-08-31T06:29:08;100463.08;;;17.42;88.54
77450;BME280;66536;53.150;18.172;2023-08-31T06:31:36;100462.56;;;17.44;88.50
77450;BME280;66536;53.150;18.172;2023-08-31T06:34:02;100464.14;;;17.44;88.33
77450;BME280;66536;53.150;18.172;2023-08-31T06:36:30;100468.45;;;17.40;88.60
77450;BME280;66536;53.150;18.172;2023-08-31T06:38:56;100471.50;;;17.32;88.52
77450;BME280;66536;53.150;18.172;2023-08-31T06:41:22;100473.70;;;17.22;88.65
77450;BME280;66536;53.150;18.172;2023-08-31T06:43:48;100474.12;;;17.11;88.63
77450;BME280;66536;53.150;18.172;2023-08-31T06:46:14;100467.58;;;16.99;88.50
77450;BME280;66536;53.150;18.172;2023-08-31T06:48:39;100462.64;;;16.88;88.88
77450;BME280;66536;53.150;18.172;2023-08-31T06:51:05;100462.48;;;16.81;89.10
77450;BME280;66536;53.150;18.172;2023-08-31T06:53:31;100465.91;;;16.84;88.98
77450;BME280;66536;53.150;18.172;2023-08-31T06:55:57;100460.64;;;16.93;89.07
77450;BME280;66536;53.150;18.172;2023-08-31T06:58:23;100459.79;;;16.93;88.94
77450;BME280;66536;53.150;18.172;2023-08-31T07:00:49;100460.80;;;16.84;88.74
77450;BME280;66536;53.150;18.172;2023-08-31T07:03:15;100466.06;;;16.75;88.67
77450;BME280;66536;53.150;18.172;2023-08-31T07:05:43;100469.20;;;16.68;88.75
77450;BME280;66536;53.150;18.172;2023-08-31T07:08:09;100467.25;;;16.74;88.60
77450;BME280;66536;53.150;18.172;2023-08-31T07:10:35;100469.20;;;16.85;88.63
77450;BME280;66536;53.150;18.172;2023-08-31T07:13:04;100470.39;;;16.97;88.49
77450;BME280;66536;53.150;18.172;2023-08-31T07:15:30;100473.77;;;17.12;88.36
77450;BME280;66536;53.150;18.172;2023-08-31T07:17:56;100476.34;;;17.27;88.26
77450;BME280;66536;53.150;18.172;2023-08-31T07:20:24;100470.02;;;17.37;87.65
77450;BME280;66536;53.150;18.172;2023-08-31T07:22:50;100474.73;;;17.47;87.17
77450;BME280;66536;53.150;18.172;2023-08-31T07:25:16;100472.37;;;17.56;86.58
77450;BME280;66536;53.150;18.172;2023-08-31T07:27:42;100471.02;;;17.63;86.35
77450;BME280;66536;53.150;18.172;2023-08-31T07:30:08;100472.01;;;17.74;86.35
77450;BME280;66536;53.150;18.172;2023-08-31T07:32:34;100474.35;;;17.92;86.08
77450;BME280;66536;53.150;18.172;2023-08-31T07:35:00;100472.86;;;18.14;85.50
77450;BME280;66536;53.150;18.172;2023-08-31T07:37:27;100476.40;;;18.38;85.01
77450;BME280;66536;53.150;18.172;2023-08-31T07:39:53;100472.64;;;18.60;84.07
77450;BME280;66536;53.150;18.172;2023-08-31T07:42:18;100468.64;;;18.78;84.58
77450;BME280;66536;53.150;18.172;2023-08-31T07:44:44;100468.13;;;19.00;84.68
77450;BME280;66536;53.150;18.172;2023-08-31T07:47:10;100472.23;;;19.15;84.32
77450;BME280;66536;53.150;18.172;2023-08-31T07:49:36;100473.59;;;19.17;83.69
77450;BME280;66536;53.150;18.172;2023-08-31T07:52:03;100476.52;;;19.38;83.51
77450;BME280;66536;53.150;18.172;2023-08-31T07:54:30;100486.02;;;19.78;82.87
77450;BME280;66536;53.150;18.172;2023-08-31T07:56:57;100488.01;;;20.15;81.53
77450;BME280;66536;53.150;18.172;2023-08-31T07:59:23;100486.98;;;20.29;79.48
77450;BME280;66536;53.150;18.172;2023-08-31T08:01:49;100490.58;;;20.45;80.36
77450;BME280;66536;53.150;18.172;2023-08-31T08:04:15;100490.14;;;20.67;80.15
77450;BME280;66536;53.150;18.172;2023-08-31T08:06:49;100484.86;;;20.84;79.67
77450;BME280;66536;53.150;18.172;2023-08-31T08:09:16;100480.42;;;20.97;78.97
77450;BME280;66536;53.150;18.172;2023-08-31T08:11:43;100481.64;;;21.09;78.70
77450;BME280;66536;53.150;18.172;2023-08-31T08:14:09;100481.33;;;21.23;78.34
77450;BME280;66536;53.150;18.172;2023-08-31T08:16:37;100480.08;;;21.40;77.85
77450;BME280;66536;53.150;18.172;2023-08-31T08:19:06;100482.02;;;21.52;76.08
77450;BME280;66536;53.150;18.172;2023-08-31T08:21:32;100484.77;;;21.68;75.20
77450;BME280;66536;53.150;18.172;2023-08-31T08:23:59;100481.30;;;21.88;74.51
77450;BME280;66536;53.150;18.172;2023-08-31T08:26:25;100482.39;;;22.11;72.47
77450;BME280;66536;53.150;18.172;2023-08-31T08:28:51;100484.52;;;22.24;71.69
77450;BME280;66536;53.150;18.172;2023-08-31T08:31:17;100479.90;;;22.45;71.95
77450;BME280;66536;53.150;18.172;2023-08-31T08:33:43;100483.05;;;22.63;71.94
77450;BME280;66536;53.150;18.172;2023-08-31T08:36:10;100485.41;;;22.79;69.50
77450;BME280;66536;53.150;18.172;2023-08-31T08:38:36;100480.77;;;22.97;68.65
77450;BME280;66536;53.150;18.172;2023-08-31T08:41:06;100474.23;;;23.20;68.49
77450;BME280;66536;53.150;18.172;2023-08-31T08:43:34;100478.23;;;23.51;64.82
77450;BME280;66536;53.150;18.172;2023-08-31T08:46:05;100477.97;;;23.75;64.09
77450;BME280;66536;53.150;18.172;2023-08-31T08:48:35;100478.55;;;24.02;62.57
77450;BME280;66536;53.150;18.172;2023-08-31T08:51:03;100482.08;;;24.26;62.88
77450;BME280;66536;53.150;18.172;2023-08-31T08:53:30;100484.52;;;24.40;61.87
77450;BME280;66536;53.150;18.172;2023-08-31T08:55:56;100481.55;;;24.32;60.42
77450;BME280;66536;53.150;18.172;2023-08-31T08:58:23;100482.27;;;24.15;60.07
77450;BME280;66536;53.150;18.172;2023-08-31T09:00:49;100487.91;;;23.94;58.06
77450;BME280;66536;53.150;18.172;2023-08-31T09:03:16;100489.98;;;23.87;60.85
77450;BME280;66536;53.150;18.172;2023-08-31T09:05:42;100480.64;;;23.98;57.71
77450;BME280;66536;53.150;18.172;2023-08-31T09:08:09;100481.39;;;24.00;57.09
77450;BME280;66536;53.150;18.172;2023-08-31T09:10:40;100482.70;;;23.98;57.45
77450;BME280;66536;53.150;18.172;2023-08-31T09:13:07;100486.96;;;23.99;57.98
77450;BME280;66536;53.150;18.172;2023-08-31T09:15:40;100483.14;;;24.03;57.11
77450;BME280;66536;53.150;18.172;2023-08-31T09:18:07;100482.81;;;24.26;57.63
77450;BME280;66536;53.150;18.172;2023-08-31T09:20:43;100482.18;;;24.55;57.25
77450;BME280;66536;53.150;18.172;2023-08-31T09:23:13;100482.84;;;24.75;57.41
77450;BME280;66536;53.150;18.172;2023-08-31T09:25:42;100482.30;;;24.93;54.44
77450;BME280;66536;53.150;18.172;2023-08-31T09:28:10;100481.30;;;24.96;53.46
77450;BME280;66536;53.150;18.172;2023-08-31T09:30:37;100486.08;;;24.88;53.12
77450;BME280;66536;53.150;18.172;2023-08-31T09:33:05;100483.65;;;24.75;53.58
77450;BME280;66536;53.150;18.172;2023-08-31T09:35:31;100482.80;;;24.62;53.38
77450;BME280;66536;53.150;18.172;2023-08-31T09:37:57;100481.38;;;24.45;53.24
77450;BME280;66536;53.150;18.172;2023-08-31T09:40:24;100485.48;;;24.33;53.04
77450;BME280;66536;53.150;18.172;2023-08-31T09:42:50;100483.50;;;24.26;52.79
77450;BME280;66536;53.150;18.172;2023-08-31T09:45:18;100487.42;;;24.32;53.78
77450;BME280;66536;53.150;18.172;2023-08-31T09:47:44;100488.54;;;24.49;53.20
77450;BME280;66536;53.150;18.172;2023-08-31T09:50:10;100485.23;;;24.64;52.23
77450;BME280;66536;53.150;18.172;2023-08-31T09:52:37;100486.63;;;24.87;52.19
77450;BME280;66536;53.150;18.172;2023-08-31T09:55:05;100492.48;;;25.17;52.76
77450;BME280;66536;53.150;18.172;2023-08-31T09:57:32;100489.69;;;25.47;52.11
77450;BME280;66536;53.150;18.172;2023-08-31T09:59:59;100486.06;;;25.64;49.73
77450;BME280;66536;53.150;18.172;2023-08-31T10:02:25;100494.09;;;25.69;49.72
77450;BME280;66536;53.150;18.172;2023-08-31T10:04:53;100494.89;;;25.58;49.75
77450;BME280;66536;53.150;18.172;2023-08-31T10:07:21;100495.23;;;25.35;50.24
77450;BME280;66536;53.150;18.172;2023-08-31T10:09:48;100496.59;;;25.24;51.01
77450;BME280;66536;53.150;18.172;2023-08-31T10:12:14;100493.52;;;25.29;51.21
77450;BME280;66536;53.150;18.172;2023-08-31T10:14:40;100491.91;;;25.38;49.98
77450;BME280;66536;53.150;18.172;2023-08-31T10:17:08;100487.16;;;25.45;50.37
77450;BME280;66536;53.150;18.172;2023-08-31T10:19:35;100491.13;;;25.44;49.99
77450;BME280;66536;53.150;18.172;2023-08-31T10:22:01;100488.64;;;25.32;49.97
77450;BME280;66536;53.150;18.172;2023-08-31T10:25:13;100486.86;;;25.02;50.11
77450;BME280;66536;53.150;18.172;2023-08-31T10:27:24;100486.23;;;24.59;50.43
77450;BME280;66536;53.150;18.172;2023-08-31T10:29:50;100490.70;;;24.34;50.24
77450;BME280;66536;53.150;18.172;2023-08-31T10:32:17;100487.02;;;24.06;50.19
77450;BME280;66536;53.150;18.172;2023-08-31T10:35:04;100489.36;;;23.98;50.08
77450;BME280;66536;53.150;18.172;2023-08-31T10:37:30;100496.67;;;23.96;50.05
77450;BME280;66536;53.150;18.172;2023-08-31T10:40:07;100495.91;;;23.93;50.25
77450;BME280;66536;53.150;18.172;2023-08-31T10:42:41;100495.27;;;23.80;50.58
77450;BME280;66536;53.150;18.172;2023-08-31T10:45:08;100495.99;;;23.71;51.02
77450;BME280;66536;53.150;18.172;2023-08-31T10:47:39;100501.71;;;23.70;51.62
77450;BME280;66536;53.150;18.172;2023-08-31T10:50:17;100495.89;;;23.73;52.03
77450;BME280;66536;53.150;18.172;2023-08-31T10:52:44;100499.07;;;23.58;52.06
77450;BME280;66536;53.150;18.172;2023-08-31T10:55:11;100513.36;;;23.36;52.69
77450;BME280;66536;53.150;18.172;2023-08-31T10:57:38;100521.69;;;22.93;55.21
77450;BME280;66536;53.150;18.172;2023-08-31T11:00:07;100536.83;;;22.56;57.52
77450;BME280;66536;53.150;18.172;2023-08-31T11:02:36;100539.59;;;22.27;59.05
77450;BME280;66536;53.150;18.172;2023-08-31T11:05:14;100539.88;;;22.07;59.69
77450;BME280;66536;53.150;18.172;2023-08-31T11:07:42;100548.98;;;21.80;60.94
77450;BME280;66536;53.150;18.172;2023-08-31T11:10:20;100556.59;;;21.55;61.50
77450;BME280;66536;53.150;18.172;2023-08-31T11:12:50;100560.61;;;21.53;62.28
77450;BME280;66536;53.150;18.172;2023-08-31T11:15:20;100572.48;;;21.47;62.53
77450;BME280;66536;53.150;18.172;2023-08-31T11:17:49;100558.52;;;21.27;62.50
77450;BME280;66536;53.150;18.172;2023-08-31T11:20:17;100565.48;;;21.03;62.93
77450;BME280;66536;53.150;18.172;2023-08-31T11:22:47;100566.08;;;20.81;63.49
77450;BME280;66536;53.150;18.172;2023-08-31T11:25:17;100568.92;;;20.61;64.13
77450;BME280;66536;53.150;18.172;2023-08-31T11:28:01;100565.93;;;20.46;64.35
77450;BME280;66536;53.150;18.172;2023-08-31T11:30:30;100572.79;;;20.37;64.45
77450;BME280;66536;53.150;18.172;2023-08-31T11:33:03;100574.27;;;20.26;64.95
77450;BME280;66536;53.150;18.172;2023-08-31T11:35:35;100577.98;;;20.16;65.58
77450;BME280;66536;53.150;18.172;2023-08-31T11:38:02;100574.79;;;20.02;65.77
77450;BME280;66536;53.150;18.172;2023-08-31T11:40:29;100574.70;;;20.05;65.93
77450;BME280;66536;53.150;18.172;2023-08-31T11:42:56;100576.14;;;20.18;65.87
77450;BME280;66536;53.150;18.172;2023-08-31T11:45:23;100579.25;;;20.29;65.99
77450;BME280;66536;53.150;18.172;2023-08-31T11:47:50;100584.76;;;20.47;66.04
77450;BME280;66536;53.150;18.172;2023-08-31T11:50:18;100586.97;;;20.61;65.96
77450;BME280;66536;53.150;18.172;2023-08-31T11:52:46;100587.56;;;20.74;65.76
77450;BME280;66536;53.150;18.172;2023-08-31T11:55:15;100582.47;;;20.86;65.80
77450;BME280;66536;53.150;18.172;2023-08-31T11:57:51;100581.13;;;21.09;65.34
77450;BME280;66536;53.150;18.172;2023-08-31T12:00:18;100582.81;;;21.36;64.94
77450;BME280;66536;53.150;18.172;2023-08-31T12:02:45;100586.24;;;21.55;64.63
77450;BME280;66536;53.150;18.172;2023-08-31T12:05:14;100583.03;;;21.82;64.50
77450;BME280;66536;53.150;18.172;2023-08-31T12:07:41;100582.02;;;22.21;63.05
77450;BME280;66536;53.150;18.172;2023-08-31T12:10:08;100574.67;;;22.44;62.66
77450;BME280;66536;53.150;18.172;2023-08-31T12:12:35;100576.73;;;22.70;62.17
77450;BME280;66536;53.150;18.172;2023-08-31T12:15:02;100569.34;;;22.92;61.70
77450;BME280;66536;53.150;18.172;2023-08-31T12:17:29;100574.54;;;23.03;60.82
77450;BME280;66536;53.150;18.172;2023-08-31T12:20:06;100577.27;;;23.10;61.35
77450;BME280;66536;53.150;18.172;2023-08-31T12:22:32;100566.02;;;23.07;59.65
77450;BME280;66536;53.150;18.172;2023-08-31T12:24:58;100561.60;;;22.90;60.46
77450;BME280;66536;53.150;18.172;2023-08-31T12:27:24;100560.98;;;22.70;60.43
77450;BME280;66536;53.150;18.172;2023-08-31T12:29:50;100563.08;;;22.25;61.06
77450;BME280;66536;53.150;18.172;2023-08-31T12:32:16;100556.98;;;21.85;62.11
77450;BME280;66536;53.150;18.172;2023-08-31T12:34:47;100551.21;;;21.68;62.81
77450;BME280;66536;53.150;18.172;2023-08-31T12:37:13;100545.71;;;21.76;62.88
77450;BME280;66536;53.150;18.172;2023-08-31T12:39:40;100559.73;;;21.88;62.70
77450;BME280;66536;53.150;18.172;2023-08-31T12:42:07;100569.20;;;21.87;62.21